createdAt,value
2022-09-18T04:01:43.711Z,7.80
2022-09-18T04:04:30.663Z,6.90
2022-09-18T04:07:20.996Z,7.70
2022-09-18T04:10:15.761Z,7.20
2022-09-18T04:12:49.097Z,7.90
2022-09-18T04:15:24.865Z,8.30
2022-09-18T04:17:56.595Z,7.90
2022-09-18T04:20:31.552Z,7.50
2022-09-18T04:23:03.652Z,8.00
2022-09-18T04:25:35.244Z,8.50
2022-09-18T04:28:06.894Z,7.90
2022-09-18T04:30:42.865Z,8.40
2022-09-18T04:33:16.097Z,7.50
2022-09-18T04:35:48.134Z,8.90
2022-09-18T04:38:19.968Z,9.50
2022-09-18T04:40:58.366Z,8.20
2022-09-18T04:43:30.321Z,9.10
2022-09-18T04:46:03.144Z,9.00
2022-09-18T04:48:34.688Z,9.00
2022-09-18T04:53:47.820Z,9.30
2022-09-18T04:56:19.714Z,9.30
2022-09-18T04:58:53.654Z,10.00
2022-09-18T05:01:25.434Z,8.40
2022-09-18T05:06:35.345Z,7.60
2022-09-18T05:09:06.995Z,9.10
2022-09-18T05:11:38.594Z,8.30
2022-09-18T05:16:40.648Z,8.00
2022-09-18T05:19:32.178Z,8.60
2022-09-18T05:22:07.520Z,7.10
2022-09-18T05:24:41.298Z,7.40
2022-09-18T05:27:12.807Z,7.40
2022-09-18T05:32:20.581Z,8.10
2022-09-18T05:34:52.060Z,7.70
2022-09-18T05:39:56.661Z,8.10
2022-09-18T05:42:28.305Z,8.10
2022-09-18T05:45:02.238Z,8.00
2022-09-18T05:47:36.476Z,8.60
2022-09-18T05:50:10.485Z,8.40
2022-09-18T05:52:42.082Z,8.20
2022-09-18T05:55:14.439Z,9.50
2022-09-18T05:57:46.349Z,8.40
2022-09-18T06:00:19.730Z,8.30
2022-09-18T06:03:00.693Z,8.60
2022-09-18T06:05:34.084Z,8.20
2022-09-18T06:08:07.543Z,8.20
2022-09-18T06:10:39.904Z,8.00
2022-09-18T06:13:13.497Z,9.00
2022-09-18T06:15:48.489Z,8.70
2022-09-18T06:18:21.221Z,8.90
2022-09-18T06:20:57.539Z,8.30
2022-09-18T06:23:32.026Z,8.20
2022-09-18T06:26:17.159Z,7.50
2022-09-18T06:28:51.846Z,8.50
2022-09-18T06:31:23.612Z,8.20
2022-09-18T06:34:09.743Z,7.50
2022-09-18T06:36:42.405Z,7.30
2022-09-18T06:39:25.444Z,7.20
2022-09-18T06:42:02.182Z,7.50
2022-09-18T06:44:57.199Z,7.90
2022-09-18T06:47:29.016Z,7.00
2022-09-18T06:52:32.166Z,8.30
2022-09-18T06:55:07.165Z,7.20
2022-09-18T06:57:39.101Z,7.60
2022-09-18T07:00:13.440Z,5.90
2022-09-18T07:02:45.469Z,6.70
2022-09-18T07:05:42.641Z,6.50
2022-09-18T07:08:15.255Z,7.20
2022-09-18T07:10:46.940Z,7.40
2022-09-18T07:15:50.948Z,7.50
2022-09-18T07:18:23.427Z,7.00
2022-09-18T07:20:55.316Z,6.70
2022-09-18T07:23:36.442Z,7.20
2022-09-18T07:26:08.440Z,7.30
2022-09-18T07:28:40.400Z,6.60
2022-09-18T07:31:36.048Z,6.90
2022-09-18T07:34:10.340Z,6.50
2022-09-18T07:39:12.652Z,7.10
2022-09-18T07:42:08.286Z,6.40
2022-09-18T07:44:41.007Z,6.00
2022-09-18T07:47:12.844Z,6.00
2022-09-18T07:49:44.746Z,5.20
2022-09-18T07:52:16.865Z,5.10
2022-09-18T07:54:52.021Z,5.50
2022-09-18T07:57:32.481Z,5.70
2022-09-18T08:00:20.239Z,4.70
2022-09-18T08:02:53.637Z,5.00
2022-09-18T08:05:45.205Z,4.80
2022-09-18T08:08:17.529Z,5.10
2022-09-18T08:11:27.957Z,5.00
2022-09-18T08:14:02.667Z,4.60
2022-09-18T08:16:47.043Z,4.70
2022-09-18T08:19:45.168Z,5.50
2022-09-18T08:22:26.019Z,4.80
2022-09-18T08:25:00.183Z,4.80
2022-09-18T08:27:32.761Z,5.10
2022-09-18T08:30:04.877Z,4.40
2022-09-18T08:32:36.807Z,4.90
2022-09-18T08:35:09.554Z,4.70
2022-09-18T08:37:45.703Z,4.40
2022-09-18T08:40:56.732Z,4.40
2022-09-18T08:43:42.340Z,4.40
2022-09-18T08:46:16.240Z,4.00
2022-09-18T08:48:56.061Z,4.00
2022-09-18T08:51:31.094Z,4.40
2022-09-18T08:54:11.148Z,3.80
2022-09-18T08:57:01.075Z,3.80
2022-09-18T08:59:39.851Z,4.10
2022-09-18T09:02:25.052Z,3.50
2022-09-18T09:05:00.794Z,3.20
2022-09-18T09:07:46.776Z,3.60
2022-09-18T09:10:31.067Z,3.40
2022-09-18T09:13:10.849Z,3.50
2022-09-18T09:15:43.422Z,2.80
2022-09-18T09:18:19.641Z,3.00
2022-09-18T09:20:54.357Z,3.90
2022-09-18T09:23:38.215Z,3.50
2022-09-18T09:26:20.349Z,3.90
2022-09-18T09:29:17.118Z,4.10
2022-09-18T09:32:11.909Z,4.30
2022-09-18T09:34:54.632Z,4.00
2022-09-18T09:37:52.208Z,3.90
2022-09-18T09:40:28.105Z,3.90
2022-09-18T09:43:02.646Z,4.00
2022-09-18T09:45:36.655Z,3.50
2022-09-18T09:48:12.006Z,3.50
2022-09-18T09:50:51.588Z,4.00
2022-09-18T09:53:25.247Z,3.90
2022-09-18T09:56:02.334Z,4.10
2022-09-18T09:58:40.442Z,4.10
2022-09-18T10:01:15.512Z,4.10
2022-09-18T10:03:52.641Z,3.30
2022-09-18T10:06:36.605Z,3.20
2022-09-18T10:09:14.283Z,3.30
2022-09-18T10:11:48.465Z,3.60
2022-09-18T10:14:21.475Z,3.40
2022-09-18T10:16:54.471Z,3.60
2022-09-18T10:19:29.737Z,3.10
2022-09-18T10:22:01.187Z,2.00
2022-09-18T10:27:09.651Z,2.60
2022-09-18T10:29:41.742Z,2.40
2022-09-18T10:32:15.586Z,2.00
2022-09-18T10:34:51.442Z,1.90
2022-09-18T10:37:42.455Z,2.10
2022-09-18T10:40:33.499Z,2.00
2022-09-18T10:43:05.451Z,2.10
2022-09-18T10:45:42.196Z,2.00
2022-09-18T10:48:29.134Z,1.80
2022-09-18T10:51:03.762Z,2.40
2022-09-18T10:53:44.031Z,2.10
2022-09-18T10:56:33.833Z,2.20
2022-09-18T10:59:31.998Z,2.40
2022-09-18T11:02:04.407Z,1.80
2022-09-18T11:04:36.618Z,2.10
2022-09-18T11:07:09.175Z,1.70
2022-09-18T11:09:41.079Z,2.10
2022-09-18T11:12:20.964Z,2.20
2022-09-18T11:14:56.766Z,2.40
2022-09-18T11:17:30.296Z,2.00
2022-09-18T11:20:03.454Z,2.10
2022-09-18T11:23:02.122Z,1.80
2022-09-18T11:25:36.128Z,2.10
2022-09-18T11:28:25.015Z,2.00
2022-09-18T11:31:01.707Z,1.60
2022-09-18T11:33:37.778Z,1.80
2022-09-18T11:36:12.632Z,2.20
2022-09-18T11:38:45.681Z,1.90
2022-09-18T11:41:24.729Z,2.30
2022-09-18T11:44:03.261Z,1.80
2022-09-18T11:46:42.653Z,1.90
2022-09-18T11:49:16.280Z,1.50
2022-09-18T11:51:52.528Z,2.10
2022-09-18T11:54:29.407Z,2.40
2022-09-18T11:57:02.510Z,2.00
2022-09-18T11:59:36.002Z,2.70
2022-09-18T12:02:13.401Z,2.10
2022-09-18T12:04:46.619Z,2.50
2022-09-18T12:10:27.900Z,1.50
2022-09-18T12:13:07.078Z,1.60
2022-09-18T12:15:39.495Z,2.30
2022-09-18T12:18:12.838Z,1.90
2022-09-18T12:20:45.710Z,1.80
2022-09-18T12:23:25.097Z,1.40
2022-09-18T12:26:05.003Z,2.40
2022-09-18T12:28:55.760Z,1.60
2022-09-18T12:31:32.675Z,1.90
2022-09-18T12:34:08.874Z,1.30
2022-09-18T12:36:50.471Z,1.60
2022-09-18T12:42:03.287Z,1.70
2022-09-18T12:44:51.677Z,1.30
2022-09-18T12:47:34.490Z,1.30
2022-09-18T12:50:26.653Z,1.80
2022-09-18T12:53:09.470Z,1.10
2022-09-18T12:55:54.595Z,1.50
2022-09-18T12:58:43.332Z,1.40
2022-09-18T13:01:26.177Z,1.70
2022-09-18T13:04:02.760Z,1.00
2022-09-18T13:06:38.660Z,1.20
2022-09-18T13:09:18.101Z,1.30
2022-09-18T13:11:51.021Z,1.80
2022-09-18T13:14:25.520Z,1.20
2022-09-18T13:16:59.580Z,1.40
2022-09-18T13:19:33.253Z,1.90
2022-09-18T13:22:06.098Z,1.60
2022-09-18T13:24:38.149Z,1.40
2022-09-18T13:27:10.848Z,1.50
2022-09-18T13:29:59.247Z,2.10
2022-09-18T13:32:41.863Z,1.90
2022-09-18T13:35:24.712Z,1.50
2022-09-18T13:38:17.427Z,1.30
2022-09-18T13:40:50.759Z,1.60
2022-09-18T13:43:36.553Z,1.40
2022-09-18T13:46:08.136Z,1.50
2022-09-18T13:48:46.266Z,1.60
2022-09-18T13:51:22.976Z,1.70
2022-09-18T13:54:16.199Z,1.80
2022-09-18T13:57:17.515Z,1.60
2022-09-18T13:59:50.501Z,1.70
2022-09-18T14:02:36.888Z,1.90
2022-09-18T14:05:31.515Z,1.40
2022-09-18T14:08:14.426Z,1.40
2022-09-18T14:11:15.813Z,1.30
2022-09-18T14:13:52.709Z,1.90
2022-09-18T14:16:43.812Z,1.80
2022-09-18T14:19:29.630Z,1.30
2022-09-18T14:22:01.627Z,1.70
2022-09-18T14:25:00.275Z,1.60
2022-09-18T14:27:41.100Z,1.50
2022-09-18T14:30:22.348Z,1.50
2022-09-18T14:33:19.994Z,1.30
2022-09-18T14:35:54.467Z,1.80
2022-09-18T14:38:29.439Z,1.50
2022-09-18T14:41:09.098Z,1.70
2022-09-18T14:43:42.368Z,1.60
2022-09-18T14:46:22.371Z,1.40
2022-09-18T14:48:54.482Z,1.60
2022-09-18T14:51:27.293Z,1.40
2022-09-18T14:53:59.519Z,1.60
2022-09-18T14:56:32.584Z,2.20
2022-09-18T14:59:06.506Z,2.10
2022-09-18T15:01:40.274Z,1.60
2022-09-18T15:04:17.942Z,1.70
2022-09-18T15:06:50.650Z,1.80
2022-09-18T15:09:27.567Z,1.90
2022-09-18T15:12:02.706Z,2.20
2022-09-18T15:14:43.024Z,1.80
2022-09-18T15:17:20.515Z,2.20
2022-09-18T15:20:00.034Z,1.90
2022-09-18T15:22:32.238Z,3.10
2022-09-18T15:25:03.912Z,2.60
2022-09-18T15:27:35.405Z,3.30
2022-09-18T15:30:09.958Z,2.90
2022-09-18T15:32:42.677Z,3.10
2022-09-18T15:35:20.725Z,3.00
2022-09-18T15:38:02.551Z,2.80
2022-09-18T15:40:35.868Z,2.90
2022-09-18T15:43:13.166Z,3.40
2022-09-18T15:45:45.349Z,3.50
2022-09-18T15:48:39.590Z,2.30
2022-09-18T15:51:13.873Z,2.40
2022-09-18T15:53:45.404Z,3.40
2022-09-18T15:58:58.229Z,2.80
2022-09-18T16:01:35.801Z,2.30
2022-09-18T16:04:20.908Z,2.50
2022-09-18T16:07:01.146Z,2.00
2022-09-18T16:09:43.615Z,1.80
2022-09-18T16:12:41.319Z,1.90
2022-09-18T16:15:24.351Z,2.20
2022-09-18T16:18:04.171Z,1.90
2022-09-18T16:20:40.569Z,2.20
2022-09-18T16:23:30.496Z,3.10
2022-09-18T16:26:07.823Z,2.20
2022-09-18T16:28:41.899Z,2.20
2022-09-18T16:31:14.463Z,2.20
2022-09-18T16:33:57.481Z,2.50
2022-09-18T16:36:31.841Z,2.80
2022-09-18T16:39:05.451Z,2.30
2022-09-18T16:41:37.079Z,2.70
2022-09-18T16:46:43.129Z,2.90
2022-09-18T16:49:15.143Z,3.30
2022-09-18T16:51:46.712Z,2.60
2022-09-18T16:54:18.113Z,2.90
2022-09-18T16:56:52.108Z,4.10
2022-09-18T16:59:24.817Z,4.20
2022-09-18T17:02:04.550Z,3.60
2022-09-18T17:04:36.421Z,3.90
2022-09-18T17:07:08.350Z,3.50
2022-09-18T17:09:39.890Z,3.70
2022-09-18T17:12:11.550Z,4.30
2022-09-18T17:14:43.223Z,4.10
2022-09-18T17:19:45.367Z,4.60
2022-09-18T17:22:19.903Z,4.10
2022-09-18T17:24:53.858Z,3.70
2022-09-18T17:27:26.405Z,4.00
2022-09-18T17:29:58.536Z,4.20
2022-09-18T17:32:30.791Z,4.20
2022-09-18T17:35:02.285Z,4.60
2022-09-18T17:37:33.804Z,4.80
2022-09-18T17:40:06.003Z,4.30
2022-09-18T17:42:37.495Z,5.10
2022-09-18T17:45:10.393Z,5.00
2022-09-18T17:47:42.233Z,4.20
2022-09-18T17:50:14.034Z,5.20
2022-09-18T17:52:46.565Z,6.00
2022-09-18T17:55:18.581Z,4.80
2022-09-18T17:57:53.172Z,5.00
2022-09-18T18:00:25.728Z,4.30
2022-09-18T18:02:57.428Z,4.40
2022-09-18T18:07:58.800Z,5.20
2022-09-18T18:10:30.525Z,4.90
2022-09-18T18:15:32.669Z,4.80
2022-09-18T18:18:04.207Z,3.10
2022-09-18T18:20:36.603Z,1.30
2022-09-18T18:23:10.577Z,1.40
2022-09-18T18:25:45.401Z,1.40
2022-09-18T18:28:16.960Z,0.90
2022-09-18T18:30:56.939Z,1.10
2022-09-18T18:33:28.967Z,1.00
2022-09-18T18:36:10.094Z,1.10
2022-09-18T18:38:41.712Z,1.70
2022-09-18T18:41:13.612Z,1.10
2022-09-18T18:43:45.608Z,1.00
2022-09-18T18:46:17.509Z,0.70
2022-09-18T18:48:49.585Z,0.70
2022-09-18T18:51:21.056Z,0.70
2022-09-18T18:53:55.222Z,1.40
2022-09-18T18:56:27.457Z,0.90
2022-09-18T18:59:01.507Z,0.80
2022-09-18T19:01:33.411Z,0.80
2022-09-18T19:04:07.325Z,0.60
2022-09-18T19:06:39.252Z,0.80
2022-09-18T19:09:11.885Z,0.90
2022-09-18T19:11:48.598Z,1.00
2022-09-18T19:14:20.744Z,1.20
2022-09-18T19:16:52.296Z,0.70
2022-09-18T19:19:25.159Z,0.80
2022-09-18T19:22:01.074Z,1.10
2022-09-18T19:24:33.861Z,0.80
2022-09-18T19:27:06.080Z,0.90
2022-09-18T19:29:39.822Z,0.90
2022-09-18T19:32:11.784Z,1.60
2022-09-18T19:37:17.813Z,0.90
2022-09-18T19:39:50.701Z,1.00
2022-09-18T19:42:22.235Z,0.80
2022-09-18T19:44:54.773Z,1.10
2022-09-18T19:47:28.110Z,1.20
2022-09-18T19:50:00.316Z,1.40
2022-09-18T19:52:31.798Z,1.20
2022-09-18T19:55:03.607Z,0.90
2022-09-18T20:00:05.934Z,1.00
2022-09-18T20:02:43.797Z,1.40
2022-09-18T20:07:47.107Z,0.90
2022-09-18T20:10:19.747Z,0.80
2022-09-18T20:12:52.999Z,0.80
2022-09-18T20:15:24.523Z,0.90
2022-09-18T20:20:27.519Z,1.00
2022-09-18T20:23:01.090Z,1.00
2022-09-18T20:25:32.725Z,1.10
2022-09-18T20:28:04.543Z,1.10
2022-09-18T20:30:36.171Z,1.10
2022-09-18T20:33:08.023Z,1.10
2022-09-18T20:35:39.712Z,1.30
2022-09-18T20:38:12.130Z,1.30
2022-09-18T20:40:44.381Z,1.10
2022-09-18T20:43:16.747Z,1.40
2022-09-18T20:45:50.051Z,1.30
2022-09-18T20:48:27.911Z,1.20
2022-09-18T20:50:59.948Z,1.10
2022-09-18T20:53:32.772Z,1.20
2022-09-18T20:56:05.136Z,1.20
2022-09-18T20:58:37.379Z,1.40
2022-09-18T21:01:13.299Z,1.70
2022-09-18T21:03:46.014Z,1.40
2022-09-18T21:06:22.856Z,1.80
2022-09-18T21:08:55.934Z,1.60
2022-09-18T21:11:28.540Z,1.90
2022-09-18T21:14:01.523Z,2.10
2022-09-18T21:16:34.275Z,1.70
2022-09-18T21:19:06.948Z,1.50
2022-09-18T21:21:38.635Z,1.80
2022-09-18T21:24:11.185Z,1.80
2022-09-18T21:26:44.050Z,1.70
2022-09-18T21:29:17.380Z,1.50
2022-09-18T21:31:49.821Z,2.00
2022-09-18T21:34:23.815Z,1.90
2022-09-18T21:36:56.806Z,1.50
2022-09-18T21:39:29.688Z,1.30
2022-09-18T21:42:02.164Z,1.60
2022-09-18T21:44:38.169Z,1.50
2022-09-18T21:47:11.089Z,1.40
2022-09-18T21:49:43.901Z,1.30
2022-09-18T21:52:17.308Z,1.50
2022-09-18T21:54:49.929Z,1.10
2022-09-18T21:57:22.180Z,1.20
2022-09-18T21:59:53.701Z,1.40
2022-09-18T22:02:25.390Z,1.30
2022-09-18T22:04:57.955Z,1.10
2022-09-18T22:07:29.844Z,1.30
2022-09-18T22:10:01.582Z,1.30
2022-09-18T22:15:04.484Z,1.20
2022-09-18T22:17:35.980Z,1.20
2022-09-18T22:20:08.786Z,1.10
2022-09-18T22:22:40.274Z,1.20
2022-09-18T22:25:13.041Z,1.00
2022-09-18T22:27:44.474Z,1.40
2022-09-18T22:30:17.181Z,1.30
2022-09-18T22:32:48.620Z,1.80
2022-09-18T22:37:50.433Z,1.10
2022-09-18T22:40:22.531Z,1.60
2022-09-18T22:45:24.332Z,1.20
2022-09-18T22:47:55.832Z,1.30
2022-09-18T22:50:27.616Z,1.20
2022-09-18T22:52:59.210Z,1.00
2022-09-18T22:58:01.623Z,1.30
2022-09-18T23:00:33.592Z,1.10
2022-09-18T23:03:05.630Z,1.20
2022-09-18T23:05:40.683Z,1.30
2022-09-18T23:08:12.929Z,1.20
2022-09-18T23:10:44.954Z,1.40
2022-09-18T23:13:16.536Z,1.30
2022-09-18T23:18:19.001Z,1.40
2022-09-18T23:20:50.736Z,1.30
2022-09-18T23:23:22.395Z,1.70
2022-09-18T23:25:54.319Z,1.30
2022-09-18T23:28:26.233Z,3.90
2022-09-18T23:30:58.470Z,1.60
2022-09-18T23:36:07.150Z,1.70
2022-09-18T23:38:38.796Z,1.10
2022-09-18T23:41:12.987Z,1.50
2022-09-18T23:43:48.291Z,1.50
2022-09-18T23:46:20.263Z,1.20
2022-09-18T23:48:55.413Z,1.10
2022-09-18T23:51:28.221Z,1.40
2022-09-18T23:54:00.268Z,1.50
2022-09-18T23:56:34.146Z,1.80
2022-09-18T23:59:06.541Z,1.50
